createdAt,value
2019-01-24T00:02:11.439Z,122.53
2019-01-24T00:04:42.558Z,108.63
2019-01-24T00:07:16.349Z,113.03
2019-01-24T00:09:47.164Z,106.50
2019-01-24T00:12:18.863Z,121.27
2019-01-24T00:14:50.840Z,110.63
2019-01-24T00:17:22.014Z,112.27
2019-01-24T00:19:54.881Z,114.47
2019-01-24T00:22:25.997Z,104.33
2019-01-24T00:24:57.976Z,114.20
2019-01-24T00:27:31.289Z,101.17
2019-01-24T00:30:05.495Z,103.33
2019-01-24T00:32:36.430Z,112.60
2019-01-24T00:35:07.462Z,112.33
2019-01-24T00:37:38.620Z,117.30
2019-01-24T00:40:11.362Z,108.90
2019-01-24T00:42:44.679Z,113.20
2019-01-24T00:45:16.876Z,112.20
2019-01-24T00:47:47.741Z,115.77
2019-01-24T00:50:19.746Z,100.73
2019-01-24T00:52:51.869Z,114.93
2019-01-24T00:55:23.700Z,103.33
2019-01-24T00:57:58.487Z,95.77
2019-01-24T01:00:29.302Z,90.80
2019-01-24T01:03:00.752Z,89.83
2019-01-24T01:05:31.970Z,100.60
2019-01-24T01:08:02.778Z,117.33
2019-01-24T01:10:34.010Z,113.73
2019-01-24T01:13:05.098Z,115.53
2019-01-24T01:15:36.029Z,120.90
2019-01-24T01:18:07.522Z,120.07
2019-01-24T01:20:39.389Z,119.30
2019-01-24T01:23:12.473Z,126.10
2019-01-24T01:25:43.340Z,136.00
2019-01-24T01:28:14.342Z,132.07
2019-01-24T01:30:45.203Z,120.50
2019-01-24T01:33:16.351Z,131.43
2019-01-24T01:35:47.462Z,132.17
2019-01-24T01:38:18.298Z,142.77
2019-01-24T01:40:51.768Z,145.97
2019-01-24T01:43:28.744Z,147.10
2019-01-24T01:46:01.553Z,135.47
2019-01-24T01:48:32.774Z,134.37
2019-01-24T01:51:03.813Z,135.57
2019-01-24T01:53:34.763Z,122.63
2019-01-24T01:56:05.679Z,136.90
2019-01-24T01:58:37.638Z,137.40
2019-01-24T02:01:10.919Z,131.93
2019-01-24T02:03:44.815Z,145.67
2019-01-24T02:06:15.559Z,156.27
2019-01-24T02:08:47.305Z,142.50
2019-01-24T02:11:18.250Z,144.97
2019-01-24T02:13:49.034Z,142.33
2019-01-24T02:16:20.175Z,129.60
2019-01-24T02:18:51.105Z,136.33
2019-01-24T02:21:23.946Z,136.40
2019-01-24T02:23:54.738Z,139.30
2019-01-24T02:26:25.607Z,137.93
2019-01-24T02:28:57.294Z,136.93
2019-01-24T02:31:28.183Z,135.57
2019-01-24T02:33:59.037Z,132.27
2019-01-24T02:36:29.977Z,143.50
2019-01-24T02:39:00.882Z,139.03
2019-01-24T02:41:33.280Z,117.43
2019-01-24T02:44:04.200Z,132.33
2019-01-24T02:46:34.974Z,139.60
2019-01-24T02:49:05.812Z,133.43
2019-01-24T02:51:36.902Z,136.17
2019-01-24T02:54:07.764Z,130.57
2019-01-24T02:56:39.220Z,126.60
2019-01-24T02:59:10.449Z,147.87
2019-01-24T03:01:41.279Z,140.40
2019-01-24T03:04:12.458Z,140.80
2019-01-24T03:06:43.452Z,145.90
2019-01-24T03:09:15.409Z,142.03
2019-01-24T03:11:46.584Z,131.23
2019-01-24T03:14:17.454Z,141.93
2019-01-24T03:16:48.374Z,139.40
2019-01-24T03:19:19.686Z,125.70
2019-01-24T03:21:51.878Z,131.60
2019-01-24T03:24:22.762Z,133.97
2019-01-24T03:26:56.675Z,136.30
2019-01-24T03:29:28.506Z,149.47
2019-01-24T03:31:59.750Z,150.10
2019-01-24T03:34:30.584Z,132.10
2019-01-24T03:37:02.765Z,146.97
2019-01-24T03:39:33.585Z,136.80
2019-01-24T03:42:04.541Z,135.10
2019-01-24T03:44:35.646Z,129.23
2019-01-24T03:47:09.394Z,140.43
2019-01-24T03:49:43.193Z,138.33
2019-01-24T03:52:14.324Z,132.30
2019-01-24T03:54:45.207Z,132.63
2019-01-24T03:57:16.110Z,139.73
2019-01-24T03:59:46.902Z,147.63
2019-01-24T04:02:19.108Z,140.50
2019-01-24T04:04:49.957Z,141.70
2019-01-24T04:07:20.810Z,141.03
2019-01-24T04:09:51.621Z,126.90
2019-01-24T04:12:23.712Z,136.83
2019-01-24T04:14:54.614Z,143.73
2019-01-24T04:17:27.810Z,128.53
2019-01-24T04:19:59.616Z,126.60
2019-01-24T04:22:30.920Z,139.93
2019-01-24T04:25:01.705Z,142.33
2019-01-24T04:27:33.743Z,144.27
2019-01-24T04:30:10.965Z,146.43
2019-01-24T04:32:43.389Z,142.43
2019-01-24T04:35:20.106Z,142.97
2019-01-24T04:37:49.255Z,129.47
2019-01-24T04:40:21.515Z,149.90
2019-01-24T04:42:55.363Z,148.57
2019-01-24T04:45:26.138Z,139.00
2019-01-24T04:47:59.916Z,135.97
2019-01-24T04:50:41.105Z,138.13
2019-01-24T04:53:13.547Z,149.30
2019-01-24T04:55:50.134Z,144.07
2019-01-24T04:58:26.322Z,150.00
2019-01-24T05:00:54.812Z,149.47
2019-01-24T05:03:45.370Z,134.03
2019-01-24T05:06:19.766Z,137.10
2019-01-24T05:08:50.924Z,139.30
2019-01-24T05:11:23.175Z,149.63
2019-01-24T05:13:55.770Z,127.03
2019-01-24T05:16:26.826Z,153.30
2019-01-24T05:18:58.962Z,157.40
2019-01-24T05:21:30.902Z,154.07
2019-01-24T05:24:01.819Z,143.73
2019-01-24T05:26:32.649Z,152.60
2019-01-24T05:29:03.527Z,151.97
2019-01-24T05:31:37.464Z,140.90
2019-01-24T05:34:12.757Z,149.57
2019-01-24T05:36:46.821Z,145.27
2019-01-24T05:39:17.979Z,126.70
2019-01-24T05:41:50.366Z,132.90
2019-01-24T05:44:21.256Z,153.37
2019-01-24T05:46:52.193Z,139.07
2019-01-24T05:49:24.336Z,137.17
2019-01-24T05:51:55.147Z,133.47
2019-01-24T05:54:26.029Z,133.60
2019-01-24T05:56:58.435Z,147.07
2019-01-24T05:59:29.468Z,146.93
2019-01-24T06:02:02.836Z,137.17
2019-01-24T06:04:35.488Z,154.20
2019-01-24T06:07:06.804Z,132.60
2019-01-24T06:09:41.007Z,136.87
2019-01-24T06:12:11.819Z,149.10
2019-01-24T06:14:43.728Z,144.80
2019-01-24T06:17:15.664Z,133.90
2019-01-24T06:19:46.657Z,135.63
2019-01-24T06:22:20.543Z,132.67
2019-01-24T06:24:54.826Z,135.37
2019-01-24T06:27:27.167Z,145.77
2019-01-24T06:29:57.980Z,138.67
2019-01-24T06:32:30.751Z,155.13
2019-01-24T06:35:01.582Z,138.50
2019-01-24T06:37:33.465Z,132.40
2019-01-24T06:40:04.373Z,138.83
2019-01-24T06:42:35.786Z,143.33
2019-01-24T06:45:08.379Z,143.63
2019-01-24T06:47:39.330Z,140.27
2019-01-24T06:50:11.887Z,142.00
2019-01-24T06:52:44.849Z,128.50
2019-01-24T06:55:18.183Z,140.83
2019-01-24T06:57:50.144Z,144.13
2019-01-24T07:00:22.582Z,130.10
2019-01-24T07:02:53.387Z,149.93
2019-01-24T07:05:24.392Z,137.83
2019-01-24T07:07:55.566Z,148.17
2019-01-24T07:10:26.937Z,150.60
2019-01-24T07:13:03.980Z,135.57
2019-01-24T07:15:37.324Z,139.50
2019-01-24T07:18:08.624Z,151.07
2019-01-24T07:20:41.577Z,128.43
2019-01-24T07:23:13.015Z,141.80
2019-01-24T07:25:43.815Z,154.77
2019-01-24T07:28:18.823Z,140.67
2019-01-24T07:30:49.723Z,140.40
2019-01-24T07:33:29.344Z,146.03
2019-01-24T07:36:02.352Z,147.27
2019-01-24T07:38:33.509Z,155.07
2019-01-24T07:41:06.874Z,142.83
2019-01-24T07:43:38.839Z,134.33
2019-01-24T07:46:11.753Z,140.13
2019-01-24T07:48:42.774Z,147.20
2019-01-24T07:51:13.594Z,133.40
2019-01-24T07:53:45.576Z,150.97
2019-01-24T07:56:17.709Z,150.67
2019-01-24T07:58:48.498Z,131.87
2019-01-24T08:01:19.310Z,120.63
2019-01-24T08:03:51.014Z,136.87
2019-01-24T08:06:22.003Z,130.70
2019-01-24T08:08:53.047Z,139.63
2019-01-24T08:11:24.342Z,150.77
2019-01-24T08:13:55.363Z,142.20
2019-01-24T08:16:26.594Z,130.50
2019-01-24T08:19:00.356Z,136.90
2019-01-24T08:21:31.226Z,137.70
2019-01-24T08:24:02.390Z,153.03
2019-01-24T08:26:33.466Z,147.70
2019-01-24T08:29:05.038Z,149.13
2019-01-24T08:31:36.202Z,139.23
2019-01-24T08:34:08.069Z,130.63
2019-01-24T08:36:40.492Z,136.97
2019-01-24T08:39:11.280Z,145.40
2019-01-24T08:41:42.568Z,137.53
2019-01-24T08:44:16.778Z,134.27
2019-01-24T08:46:52.057Z,148.73
2019-01-24T08:49:23.464Z,138.03
2019-01-24T08:51:56.193Z,134.97
2019-01-24T08:54:27.095Z,146.77
2019-01-24T08:56:58.427Z,138.53
2019-01-24T08:59:29.687Z,145.93
2019-01-24T09:02:06.444Z,149.60
2019-01-24T09:04:38.848Z,145.57
2019-01-24T09:07:15.382Z,147.03
2019-01-24T09:09:56.931Z,164.03
2019-01-24T09:12:30.508Z,148.77
2019-01-24T09:15:12.484Z,154.60
2019-01-24T09:17:43.469Z,147.30
2019-01-24T09:20:15.745Z,167.37
2019-01-24T09:22:47.111Z,158.13
2019-01-24T09:25:19.010Z,142.27
2019-01-24T09:27:50.155Z,146.90
2019-01-24T09:30:23.168Z,151.20
2019-01-24T09:32:55.133Z,150.57
2019-01-24T09:35:25.966Z,152.93
2019-01-24T09:38:00.658Z,143.53
2019-01-24T09:40:31.402Z,145.40
2019-01-24T09:43:03.200Z,143.60
2019-01-24T09:45:34.450Z,157.67
2019-01-24T09:48:32.214Z,141.27
2019-01-24T09:51:06.630Z,144.97
2019-01-24T09:53:38.476Z,142.70
2019-01-24T09:56:09.954Z,145.03
2019-01-24T09:58:40.814Z,138.13
2019-01-24T10:01:11.667Z,145.03
2019-01-24T10:03:42.745Z,135.43
2019-01-24T10:06:14.578Z,155.70
2019-01-24T10:08:47.917Z,145.70
2019-01-24T10:11:24.232Z,137.20
2019-01-24T10:13:55.727Z,113.90
2019-01-24T10:16:28.443Z,112.87
2019-01-24T10:18:59.351Z,138.20
2019-01-24T10:21:31.715Z,130.63
2019-01-24T10:24:10.979Z,132.47
2019-01-24T10:26:42.028Z,128.40
2019-01-24T10:29:23.743Z,129.17
2019-01-24T10:31:54.527Z,142.60
2019-01-24T10:34:29.866Z,130.73
2019-01-24T10:37:01.069Z,127.17
2019-01-24T10:39:31.895Z,137.37
2019-01-24T10:42:02.684Z,140.30
2019-01-24T10:44:33.741Z,139.67
2019-01-24T10:47:04.689Z,134.37
2019-01-24T10:49:38.364Z,141.27
2019-01-24T10:52:13.059Z,141.87
2019-01-24T10:54:44.580Z,148.33
2019-01-24T10:57:15.441Z,131.57
2019-01-24T10:59:46.893Z,120.47
2019-01-24T11:02:18.898Z,126.87
2019-01-24T11:04:49.715Z,123.23
2019-01-24T11:07:27.969Z,148.50
2019-01-24T11:09:58.783Z,144.63
2019-01-24T11:12:51.840Z,133.80
2019-01-24T11:15:30.148Z,142.73
2019-01-24T11:18:02.734Z,142.23
2019-01-24T11:20:35.944Z,145.73
2019-01-24T11:23:07.195Z,127.60
2019-01-24T11:25:38.355Z,137.10
2019-01-24T11:28:09.714Z,145.10
2019-01-24T11:30:40.734Z,132.50
2019-01-24T11:33:13.273Z,147.63
2019-01-24T11:35:53.547Z,120.47
2019-01-24T11:38:45.147Z,135.77
2019-01-24T11:41:19.678Z,125.87
2019-01-24T11:44:00.168Z,130.63
2019-01-24T11:46:53.156Z,134.63
2019-01-24T11:49:44.068Z,155.93
2019-01-24T11:52:15.960Z,147.43
2019-01-24T11:54:48.016Z,140.83
2019-01-24T11:57:19.097Z,128.27
2019-01-24T11:59:50.008Z,144.73
2019-01-24T12:02:21.863Z,135.73
2019-01-24T12:04:52.831Z,125.27
2019-01-24T12:07:27.494Z,124.87
2019-01-24T12:09:59.523Z,129.07
2019-01-24T12:12:30.717Z,133.50
2019-01-24T12:15:01.536Z,137.80
2019-01-24T12:17:32.389Z,137.60
2019-01-24T12:20:03.420Z,109.13
2019-01-24T12:22:38.661Z,131.77
2019-01-24T12:25:09.846Z,129.77
2019-01-24T12:27:41.176Z,128.07
2019-01-24T12:30:21.759Z,121.13
2019-01-24T12:32:52.693Z,109.57
2019-01-24T12:35:24.120Z,126.17
2019-01-24T12:37:58.239Z,117.23
2019-01-24T12:40:30.042Z,127.13
2019-01-24T12:43:01.039Z,119.53
2019-01-24T12:45:34.957Z,108.60
2019-01-24T12:48:08.354Z,110.00
2019-01-24T12:50:41.523Z,120.23
2019-01-24T12:53:13.699Z,124.33
2019-01-24T12:55:45.404Z,118.83
2019-01-24T12:58:17.138Z,99.07
2019-01-24T13:00:50.839Z,107.17
2019-01-24T13:03:22.833Z,110.87
2019-01-24T13:05:54.967Z,116.43
2019-01-24T13:08:29.225Z,108.90
2019-01-24T13:11:01.605Z,108.57
2019-01-24T13:13:36.671Z,120.03
2019-01-24T13:20:21.560Z,113.40
2019-01-24T13:22:56.001Z,122.53
2019-01-24T13:25:29.303Z,113.40
2019-01-24T13:28:00.522Z,114.53
2019-01-24T13:30:33.092Z,109.80
2019-01-24T13:33:06.185Z,138.13
2019-01-24T13:35:37.266Z,125.60
2019-01-24T13:38:08.813Z,110.23
2019-01-24T13:40:44.388Z,108.87
2019-01-24T13:43:15.393Z,99.93
2019-01-24T13:45:46.535Z,106.17
2019-01-24T13:48:23.466Z,108.97
2019-01-24T13:50:57.276Z,107.17
2019-01-24T13:53:31.933Z,108.47
2019-01-24T13:56:04.011Z,105.53
2019-01-24T13:58:34.844Z,95.17
2019-01-24T14:01:12.676Z,99.77
2019-01-24T14:04:11.051Z,100.77
2019-01-24T14:06:43.927Z,98.50
2019-01-24T14:09:16.003Z,101.07
2019-01-24T14:11:47.221Z,100.83
2019-01-24T14:14:20.762Z,98.03
2019-01-24T14:16:52.423Z,92.63
2019-01-24T14:19:26.267Z,84.93
2019-01-24T14:21:57.414Z,97.87
2019-01-24T14:24:28.524Z,89.30
2019-01-24T14:26:59.379Z,91.07
2019-01-24T14:29:39.282Z,102.50
2019-01-24T14:32:23.515Z,93.83
2019-01-24T14:34:54.664Z,91.20
2019-01-24T14:37:39.645Z,106.53
2019-01-24T14:40:06.510Z,110.10
2019-01-24T14:42:38.683Z,108.13
2019-01-24T14:45:19.228Z,116.07
2019-01-24T14:47:51.624Z,111.67
2019-01-24T14:50:44.384Z,115.77
2019-01-24T14:53:17.831Z,120.20
2019-01-24T14:55:48.711Z,112.77
2019-01-24T14:58:22.613Z,108.00
2019-01-24T15:01:01.040Z,109.70
2019-01-24T15:03:32.081Z,125.17
2019-01-24T15:06:03.332Z,120.10
2019-01-24T15:08:35.628Z,117.83
2019-01-24T15:11:07.732Z,117.17
2019-01-24T15:13:41.437Z,115.63
2019-01-24T15:16:12.482Z,130.37
2019-01-24T15:18:43.505Z,113.13
2019-01-24T15:21:16.765Z,116.23
2019-01-24T15:23:53.149Z,110.10
2019-01-24T15:26:25.281Z,109.27
2019-01-24T15:28:56.088Z,131.47
2019-01-24T15:31:29.107Z,120.60
2019-01-24T15:34:03.017Z,125.87
2019-01-24T15:36:40.047Z,117.37
2019-01-24T15:39:15.457Z,111.27
2019-01-24T15:41:54.495Z,115.00
2019-01-24T15:44:28.921Z,119.67
2019-01-24T15:47:02.913Z,126.37
2019-01-24T15:49:36.918Z,142.23
2019-01-24T15:52:13.743Z,128.17
2019-01-24T15:54:53.413Z,117.17
2019-01-24T15:57:32.202Z,118.43
2019-01-24T16:00:09.424Z,118.63
2019-01-24T16:02:41.968Z,118.70
2019-01-24T16:05:15.092Z,118.53
2019-01-24T16:07:47.732Z,111.23
2019-01-24T16:10:19.631Z,103.63
2019-01-24T16:12:51.679Z,112.90
2019-01-24T16:15:25.364Z,110.87
2019-01-24T16:18:03.927Z,113.40
2019-01-24T16:20:42.756Z,105.23
2019-01-24T16:23:17.824Z,108.10
2019-01-24T16:25:55.658Z,115.40
2019-01-24T16:28:29.801Z,113.63
2019-01-24T16:31:12.739Z,113.23
2019-01-24T16:33:54.579Z,102.43
2019-01-24T16:36:27.013Z,114.40
2019-01-24T16:39:03.371Z,106.53
2019-01-24T16:41:36.113Z,112.50
2019-01-24T16:44:07.510Z,106.80
2019-01-24T16:46:40.174Z,101.47
2019-01-24T16:49:11.192Z,123.57
2019-01-24T16:51:49.339Z,109.17
2019-01-24T16:54:42.530Z,107.07
2019-01-24T16:57:23.569Z,119.87
2019-01-24T16:59:56.350Z,106.17
2019-01-24T17:02:27.612Z,110.33
2019-01-24T17:05:06.458Z,103.57
2019-01-24T17:07:51.574Z,112.40
2019-01-24T17:10:23.918Z,104.27
2019-01-24T17:13:00.093Z,106.00
2019-01-24T17:15:39.760Z,107.47
2019-01-24T17:18:22.023Z,105.03
2019-01-24T17:21:00.606Z,96.17
2019-01-24T17:23:38.743Z,110.17
2019-01-24T17:26:23.985Z,108.43
2019-01-24T17:28:53.306Z,107.70
2019-01-24T17:31:28.206Z,108.03
2019-01-24T17:34:01.891Z,109.57
2019-01-24T17:36:40.270Z,114.97
2019-01-24T17:39:14.908Z,107.73
2019-01-24T17:41:57.876Z,108.87
2019-01-24T17:44:31.567Z,119.10
2019-01-24T17:47:06.981Z,120.63
2019-01-24T17:49:40.450Z,111.73
2019-01-24T17:52:18.017Z,115.53
2019-01-24T17:54:51.597Z,108.77
2019-01-24T17:57:31.385Z,107.60
2019-01-24T18:00:02.482Z,112.17
2019-01-24T18:02:38.597Z,117.50
2019-01-24T18:05:12.028Z,106.03
2019-01-24T18:07:43.330Z,115.70
2019-01-24T18:10:19.987Z,114.80
2019-01-24T18:12:53.364Z,105.23
2019-01-24T18:15:28.270Z,111.60
2019-01-24T18:17:59.814Z,110.43
2019-01-24T18:20:39.406Z,113.03
2019-01-24T18:23:10.395Z,112.33
2019-01-24T18:25:59.439Z,111.13
2019-01-24T18:28:47.126Z,114.97
2019-01-24T18:31:21.988Z,102.87
2019-01-24T18:33:54.142Z,103.30
2019-01-24T18:36:29.451Z,107.30
2019-01-24T18:39:11.810Z,108.17
2019-01-24T18:41:47.477Z,121.57
2019-01-24T18:44:18.372Z,105.90
2019-01-24T18:46:50.868Z,111.83
2019-01-24T18:49:23.698Z,119.37
2019-01-24T18:51:55.639Z,113.80
2019-01-24T18:54:33.199Z,110.33
2019-01-24T18:57:14.515Z,108.27
2019-01-24T18:59:47.922Z,114.97
2019-01-24T19:02:23.382Z,104.03
2019-01-24T19:04:54.292Z,111.07
2019-01-24T19:07:27.738Z,104.13
2019-01-24T19:10:04.799Z,108.43
2019-01-24T19:12:38.469Z,122.30
2019-01-24T19:15:12.591Z,114.17
2019-01-24T19:17:43.615Z,116.20
2019-01-24T19:20:20.320Z,116.40
2019-01-24T19:22:57.247Z,120.93
2019-01-24T19:25:31.837Z,117.13
2019-01-24T19:28:04.892Z,115.67
2019-01-24T19:30:40.348Z,113.87
2019-01-24T19:33:11.771Z,107.67
2019-01-24T19:35:44.874Z,113.70
2019-01-24T19:38:20.405Z,117.73
2019-01-24T19:40:56.276Z,108.17
2019-01-24T19:43:32.001Z,112.40
2019-01-24T19:46:04.963Z,111.03
2019-01-24T19:48:50.973Z,117.80
2019-01-24T19:51:22.249Z,124.97
2019-01-24T19:54:00.466Z,109.00
2019-01-24T19:56:36.938Z,115.17
2019-01-24T19:59:16.332Z,126.10
2019-01-24T20:02:04.718Z,115.93
2019-01-24T20:04:36.508Z,117.30
2019-01-24T20:07:14.182Z,112.63
2019-01-24T20:09:53.043Z,110.40
2019-01-24T20:12:27.319Z,110.93
2019-01-24T20:15:01.766Z,124.00
2019-01-24T20:17:35.379Z,110.73
2019-01-24T20:20:13.479Z,119.37
2019-01-24T20:22:48.283Z,117.07
2019-01-24T20:25:26.538Z,113.20
2019-01-24T20:28:00.380Z,117.83
2019-01-24T20:30:33.182Z,118.00
2019-01-24T20:33:04.478Z,113.27
2019-01-24T20:35:47.311Z,109.67
2019-01-24T20:38:18.473Z,107.83
2019-01-24T20:40:51.440Z,110.23
2019-01-24T20:43:22.443Z,109.20
2019-01-24T20:45:53.556Z,111.70
2019-01-24T20:48:34.458Z,105.13
2019-01-24T20:51:07.981Z,105.10
2019-01-24T20:53:39.375Z,110.67
2019-01-24T20:56:16.058Z,110.43
2019-01-24T20:58:47.233Z,114.77
2019-01-24T21:01:18.067Z,102.57
2019-01-24T21:03:55.317Z,109.80
2019-01-24T21:06:24.471Z,97.80
2019-01-24T21:08:56.030Z,100.33
2019-01-24T21:11:29.899Z,102.67
2019-01-24T21:14:00.796Z,119.43
2019-01-24T21:16:31.941Z,109.53
2019-01-24T21:19:05.705Z,111.20
2019-01-24T21:21:36.932Z,119.93
2019-01-24T21:24:10.449Z,104.47
2019-01-24T21:26:47.838Z,106.10
2019-01-24T21:29:19.203Z,104.67
2019-01-24T21:31:56.519Z,119.27
2019-01-24T21:34:33.518Z,111.47
2019-01-24T21:37:10.657Z,109.40
2019-01-24T21:39:45.243Z,108.83
2019-01-24T21:42:19.281Z,106.13
2019-01-24T21:44:51.962Z,113.77
2019-01-24T21:47:23.709Z,108.73
2019-01-24T21:49:56.246Z,112.87
2019-01-24T21:52:27.559Z,109.00
2019-01-24T21:54:58.476Z,109.23
2019-01-24T21:57:29.803Z,97.67
2019-01-24T22:00:06.028Z,100.27
2019-01-24T22:02:38.484Z,111.60
2019-01-24T22:05:09.854Z,107.60
2019-01-24T22:07:41.021Z,94.13
2019-01-24T22:10:14.498Z,110.00
2019-01-24T22:12:45.487Z,110.60
2019-01-24T22:15:18.285Z,110.83
2019-01-24T22:17:50.453Z,115.10
2019-01-24T22:20:22.618Z,111.40
2019-01-24T22:22:54.649Z,110.43
2019-01-24T22:25:29.991Z,112.00
2019-01-24T22:28:01.201Z,114.23
2019-01-24T22:30:37.667Z,111.60
2019-01-24T22:33:08.610Z,105.07
2019-01-24T22:35:39.421Z,111.53
2019-01-24T22:38:16.199Z,104.10
2019-01-24T22:40:48.759Z,108.20
2019-01-24T22:43:21.061Z,101.90
2019-01-24T22:45:52.537Z,101.27
2019-01-24T22:48:24.248Z,105.30
2019-01-24T22:51:02.871Z,100.00
2019-01-24T22:53:34.288Z,95.83
2019-01-24T22:56:06.312Z,96.50
2019-01-24T22:58:37.409Z,112.40
2019-01-24T23:01:45.085Z,107.63
2019-01-24T23:04:24.454Z,95.13
2019-01-24T23:06:55.727Z,98.70
2019-01-24T23:09:26.844Z,96.07
2019-01-24T23:12:00.511Z,103.70
2019-01-24T23:14:32.733Z,115.67
2019-01-24T23:17:03.622Z,99.23
2019-01-24T23:19:34.966Z,98.87
2019-01-24T23:22:06.198Z,98.67
2019-01-24T23:24:38.736Z,102.93
2019-01-24T23:27:13.625Z,92.73
2019-01-24T23:29:45.893Z,92.80
2019-01-24T23:32:17.250Z,101.30
2019-01-24T23:34:48.681Z,92.40
2019-01-24T23:37:28.534Z,101.27
2019-01-24T23:39:59.586Z,98.97
2019-01-24T23:42:30.956Z,101.43
2019-01-24T23:45:05.936Z,89.27
2019-01-24T23:47:39.708Z,95.07
2019-01-24T23:50:11.601Z,101.67
2019-01-24T23:52:43.165Z,103.00
2019-01-24T23:55:20.031Z,101.63
2019-01-24T23:57:51.044Z,102.03
